Oyhat, Washington
Current Conditions -  °F | °C
As of 4:22 AM on Monday 20 Oct 2014 (Local Time) from KHQM Reporting Station
Light Rain Light Rain  
Wind Chill: 13°   Ceiling: 1200
Heat Index: 13°   Visibility: 3mi
Dew Point: 13°   Wind: 3mph
Humidity: 100%   Direction: 90°E
Pressure: 29.69"   Gusts: NA
Location:  47.0202°N, 123.878°W
Report Text: KHQM 201122Z AUTO 09003KT 3SM -RA BR FEW005 OVC012 13/13 A2969 RMK AO2 P0011 T01330133
Loading
Personal Weather Stations






























Interactive Weather Map
Tropical Storm Tracking
New forecast layout! Learn more

10-Day Weather Forecast

Advertisements
Track Severe Weather on mobile